Time;durP1;ratioP1;P1;durP2;ratioP2;P2;SDS_P1;SDS_P2;PMS_P1;PMS_P2;Temp;Humidity;BMP_temperature;BMP_pressure;BME280_temperature;BME280_humidity;BME280_pressure;Samples;Min_cycle;Max_cycle;Signal;HPM_P1;HPM_P2
2023/09/08 00:01:08;;;;;;;5.88;2.38;;;;;;;16.08;100.00;96501.78;5008738;28;20608;-73
2023/09/08 00:03:34;;;;;;;3.47;2.03;;;;;;;16.10;100.00;96505.06;5008519;28;20226;-73
2023/09/08 00:06:01;;;;;;;4.88;2.42;;;;;;;15.93;100.00;96509.13;5008977;28;20207;-73
2023/09/08 00:08:29;;;;;;;3.03;1.77;;;;;;;16.20;100.00;96504.63;5008289;28;20202;-73
2023/09/08 00:10:56;;;;;;;2.97;1.92;;;;;;;16.01;100.00;96503.63;5008600;28;20222;-72
2023/09/08 00:13:22;;;;;;;4.20;2.13;;;;;;;15.91;100.00;96505.84;5008227;28;20788;-73
2023/09/08 00:15:48;;;;;;;4.00;1.92;;;;;;;15.95;100.00;96499.13;5008652;28;20199;-73
2023/09/08 00:18:16;;;;;;;3.40;1.77;;;;;;;16.03;100.00;96504.22;5008670;28;20210;-73
2023/09/08 00:20:42;;;;;;;4.28;2.33;;;;;;;16.02;100.00;96502.56;5008844;28;20226;-73
2023/09/08 00:23:09;;;;;;;5.07;2.38;;;;;;;15.88;100.00;96498.31;5008417;28;20230;-73
2023/09/08 00:25:37;;;;;;;5.05;2.08;;;;;;;15.83;100.00;96496.44;5008549;28;20209;-73
2023/09/08 00:28:03;;;;;;;3.80;2.05;;;;;;;15.69;100.00;96490.28;5008515;28;20211;-73
2023/09/08 00:30:30;;;;;;;4.35;2.50;;;;;;;15.82;100.00;96492.16;5008536;28;20242;-73
2023/09/08 00:32:56;;;;;;;4.32;2.25;;;;;;;15.91;100.00;96495.22;5008500;28;20213;-73
2023/09/08 00:35:23;;;;;;;3.78;1.90;;;;;;;16.03;100.00;96490.94;5008599;28;20199;-73
2023/09/08 00:37:49;;;;;;;3.63;2.25;;;;;;;16.00;100.00;96491.34;5008730;28;21061;-73
2023/09/08 00:40:16;;;;;;;4.13;2.10;;;;;;;15.98;100.00;96496.03;5008361;28;20230;-73
2023/09/08 00:42:44;;;;;;;4.55;2.20;;;;;;;16.13;100.00;96487.88;5008173;28;20699;-73
2023/09/08 00:45:11;;;;;;;4.82;2.50;;;;;;;15.96;100.00;96490.13;5007873;28;20217;-73
2023/09/08 00:47:37;;;;;;;4.22;1.98;;;;;;;15.91;100.00;96487.25;5008260;28;20668;-72
2023/09/08 00:50:05;;;;;;;3.35;2.17;;;;;;;15.84;100.00;96487.47;5008656;28;20584;-73
2023/09/08 00:52:33;;;;;;;5.97;2.55;;;;;;;15.82;100.00;96492.16;5008007;28;21160;-72
2023/09/08 00:55:00;;;;;;;3.92;2.50;;;;;;;15.83;100.00;96489.28;5008435;28;20195;-72
2023/09/08 00:57:27;;;;;;;4.40;2.35;;;;;;;15.87;100.00;96494.00;5008013;28;20210;-73
2023/09/08 00:59:55;;;;;;;4.38;2.55;;;;;;;15.98;100.00;96487.25;5008538;28;20219;-73
2023/09/08 01:02:22;;;;;;;4.60;2.15;;;;;;;15.77;100.00;96494.59;5007931;28;20230;-73
2023/09/08 01:04:49;;;;;;;3.80;1.90;;;;;;;15.65;100.00;96490.91;5008273;28;20199;-73
2023/09/08 01:07:16;;;;;;;4.38;2.35;;;;;;;15.70;100.00;96486.59;5007978;28;20207;-73
2023/09/08 01:09:43;;;;;;;5.38;2.38;;;;;;;15.67;100.00;96491.50;5008228;28;20223;-73
2023/09/08 01:12:10;;;;;;;5.57;2.45;;;;;;;15.73;100.00;96488.84;5007948;28;20218;-73
2023/09/08 01:14:36;;;;;;;4.00;2.47;;;;;;;15.62;100.00;96488.66;5007816;28;20206;-73
2023/09/08 01:17:04;;;;;;;5.57;2.33;;;;;;;15.77;100.00;96491.94;5008197;28;20720;-73
2023/09/08 01:19:31;;;;;;;3.70;2.05;;;;;;;15.51;100.00;96491.88;5007781;28;20712;-73
2023/09/08 01:22:12;;;;;;;18.40;3.28;;;;;;;15.87;100.00;96487.84;5011188;28;20213;-73
2023/09/08 01:25:00;;;;;;;6.82;2.38;;;;;;;15.69;100.00;96492.13;5011397;28;20210;-73
2023/09/08 01:27:30;;;;;;;5.38;1.60;;;;;;;15.73;100.00;96490.69;5011507;28;20214;-73
2023/09/08 01:29:57;;;;;;;5.30;2.50;;;;;;;15.41;100.00;96496.75;5011596;28;20227;-73
2023/09/08 01:32:24;;;;;;;4.85;2.45;;;;;;;15.31;100.00;96497.16;5011268;28;20202;-73
2023/09/08 01:34:51;;;;;;;3.22;2.10;;;;;;;15.47;100.00;96490.66;5011583;28;20203;-73
2023/09/08 01:37:18;;;;;;;4.20;2.42;;;;;;;15.50;100.00;96495.56;5011558;28;20586;-73
2023/09/08 01:39:44;;;;;;;4.60;2.45;;;;;;;15.46;100.00;96489.81;5011635;28;20745;-74
2023/09/08 01:42:12;;;;;;;4.28;2.60;;;;;;;15.61;100.00;96485.16;5011002;28;20241;-73
2023/09/08 01:44:39;;;;;;;4.88;2.17;;;;;;;15.45;100.00;96492.69;5011292;28;20199;-73
2023/09/08 01:47:05;;;;;;;4.72;2.28;;;;;;;15.40;100.00;96485.34;5011371;28;20217;-73
2023/09/08 01:49:32;;;;;;;7.30;2.75;;;;;;;15.53;100.00;96489.84;5010910;28;20227;-73
2023/09/08 01:51:58;;;;;;;5.18;2.40;;;;;;;15.56;100.00;96490.25;5011089;28;20199;-73
2023/09/08 01:54:25;;;;;;;3.80;2.22;;;;;;;15.52;100.00;96483.72;5011270;28;20199;-74
2023/09/08 01:56:52;;;;;;;4.32;2.25;;;;;;;15.54;100.00;96480.84;5011235;28;20216;-73
2023/09/08 01:59:19;;;;;;;4.93;2.53;;;;;;;15.67;100.00;96484.38;5010741;28;20226;-74
2023/09/08 02:01:46;;;;;;;4.05;2.55;;;;;;;15.50;100.00;96484.94;5010059;28;20203;-73
2023/09/08 02:04:12;;;;;;;4.20;2.13;;;;;;;15.37;100.00;96480.41;5010825;28;20234;-74
2023/09/08 02:06:39;;;;;;;4.35;2.38;;;;;;;15.30;100.00;96484.88;5010528;28;20203;-73
2023/09/08 02:09:05;;;;;;;3.55;2.20;;;;;;;15.37;100.00;96484.91;5010874;28;20210;-73
2023/09/08 02:11:32;;;;;;;5.15;2.53;;;;;;;15.23;100.00;96483.22;5010494;28;20221;-73
2023/09/08 02:13:58;;;;;;;4.43;2.22;;;;;;;15.13;100.00;96482.75;5010434;28;20203;-74
2023/09/08 02:16:26;;;;;;;5.30;2.72;;;;;;;15.31;100.00;96480.38;5010890;28;20761;-73
2023/09/08 02:18:53;;;;;;;9.15;2.72;;;;;;;15.29;100.00;96477.13;5010838;28;20573;-73
2023/09/08 02:21:19;;;;;;;2.70;1.95;;;;;;;15.23;100.00;96482.41;5010562;28;20209;-73
2023/09/08 02:23:46;;;;;;;2.97;1.80;;;;;;;15.08;100.00;96479.88;5010297;28;20222;-73
2023/09/08 02:26:12;;;;;;;3.67;2.20;;;;;;;15.16;100.00;96487.69;5010394;28;20320;-74
2023/09/08 02:28:39;;;;;;;3.05;1.63;;;;;;;15.13;100.00;96477.44;5010458;28;20217;-73
2023/09/08 02:31:05;;;;;;;3.22;1.83;;;;;;;15.08;100.00;96477.22;5010567;28;20242;-73
2023/09/08 02:33:33;;;;;;;5.28;2.85;;;;;;;15.26;100.00;96475.69;5009161;28;20198;-74
2023/09/08 02:36:03;;;;;;;4.38;2.50;;;;;;;15.30;100.00;96476.91;5010565;28;20215;-73
2023/09/08 02:38:29;;;;;;;4.30;2.58;;;;;;;15.15;100.00;96482.53;5010263;28;20217;-74
2023/09/08 02:40:56;;;;;;;4.18;2.15;;;;;;;15.21;100.00;96479.13;5009936;28;20703;-74
2023/09/08 02:43:22;;;;;;;3.78;2.20;;;;;;;15.15;100.00;96485.19;5010055;28;20222;-74
2023/09/08 02:45:49;;;;;;;5.18;2.22;;;;;;;14.97;100.00;96482.25;5009945;28;20229;-73
2023/09/08 02:48:16;;;;;;;5.28;2.20;;;;;;;15.04;100.00;96477.81;5010314;28;20290;-73
2023/09/08 02:50:44;;;;;;;5.53;2.85;;;;;;;15.24;100.00;96481.41;5010266;28;20574;-73
2023/09/08 02:53:11;;;;;;;3.53;2.55;;;;;;;15.06;100.00;96486.38;5009795;28;20202;-73
2023/09/08 02:55:37;;;;;;;6.32;2.45;;;;;;;15.01;100.00;96487.00;5010142;28;20672;-73
2023/09/08 02:58:04;;;;;;;4.55;2.58;;;;;;;15.09;100.00;96481.50;5010084;28;20199;-74
2023/09/08 03:00:30;;;;;;;5.40;2.58;;;;;;;14.97;100.00;96488.41;5008967;28;20232;-73
2023/09/08 03:02:57;;;;;;;4.15;2.50;;;;;;;15.01;100.00;96483.53;5009412;28;20222;-73
2023/09/08 03:05:24;;;;;;;5.25;2.58;;;;;;;14.87;100.00;96487.94;5009413;28;20664;-73
2023/09/08 03:07:51;;;;;;;5.95;2.78;;;;;;;15.04;100.00;96483.94;5009572;28;20199;-74
2023/09/08 03:10:18;;;;;;;5.90;2.80;;;;;;;14.91;100.00;96486.53;5009782;28;20227;-73
2023/09/08 03:12:45;;;;;;;4.68;2.40;;;;;;;14.83;100.00;96483.25;5009467;28;20210;-73
2023/09/08 03:15:11;;;;;;;5.70;2.88;;;;;;;14.80;100.00;96481.81;5009592;28;20203;-73
2023/09/08 03:17:38;;;;;;;4.53;2.42;;;;;;;14.77;100.00;96479.53;5009648;28;20210;-73
2023/09/08 03:20:07;;;;;;;4.43;2.38;;;;;;;14.82;100.00;96486.91;5009540;28;20738;-73
2023/09/08 03:22:33;;;;;;;9.27;2.90;;;;;;;14.69;100.00;96486.84;5009314;28;20718;-73
2023/09/08 03:25:01;;;;;;;6.28;2.95;;;;;;;15.00;100.00;96482.69;5009500;28;20199;-73
2023/09/08 03:27:28;;;;;;;5.13;2.67;;;;;;;14.69;100.00;96479.69;5009496;28;20206;-73
2023/09/08 03:29:54;;;;;;;3.90;2.65;;;;;;;14.63;100.00;96480.47;5009490;28;20228;-73
2023/09/08 03:32:21;;;;;;;6.45;2.70;;;;;;;14.61;100.00;96486.19;5009012;28;20592;-73
2023/09/08 03:34:47;;;;;;;5.03;2.47;;;;;;;14.67;100.00;96481.72;5008826;28;20206;-73
2023/09/08 03:37:15;;;;;;;5.22;2.58;;;;;;;14.48;100.00;96478.16;5009416;28;20213;-73
2023/09/08 03:39:41;;;;;;;5.07;2.50;;;;;;;14.54;100.00;96480.84;5009006;28;20728;-73
2023/09/08 03:42:09;;;;;;;6.43;3.13;;;;;;;14.63;100.00;96475.16;5009066;28;20207;-73
2023/09/08 03:44:36;;;;;;;6.03;2.95;;;;;;;14.22;100.00;96475.34;5008763;28;20222;-73
2023/09/08 03:47:03;;;;;;;6.88;3.22;;;;;;;14.44;100.00;96469.75;5008979;28;20316;-73
2023/09/08 03:49:29;;;;;;;5.13;2.60;;;;;;;14.41;100.00;96469.31;5008901;28;20696;-73
2023/09/08 03:51:58;;;;;;;5.13;2.97;;;;;;;14.42;100.00;96470.97;5008920;28;20198;-73
2023/09/08 03:54:24;;;;;;;4.45;2.17;;;;;;;14.39;100.00;96468.72;5008887;28;20214;-73
2023/09/08 03:56:51;;;;;;;7.85;3.25;;;;;;;14.45;100.00;96468.75;5008857;28;20195;-73
2023/09/08 03:59:19;;;;;;;5.07;2.65;;;;;;;14.22;100.00;96470.84;5008774;28;20349;-73
2023/09/08 04:01:45;;;;;;;5.88;2.78;;;;;;;14.19;100.00;96467.75;5008371;28;20203;-73
2023/09/08 04:04:12;;;;;;;5.47;2.95;;;;;;;14.25;100.00;96469.63;5008960;28;20229;-73
2023/09/08 04:06:38;;;;;;;11.18;3.35;;;;;;;14.28;100.00;96474.53;5008901;28;20206;-73
2023/09/08 04:09:05;;;;;;;5.25;2.70;;;;;;;14.29;100.00;96477.00;5008762;28;20203;-73
2023/09/08 04:11:31;;;;;;;6.60;2.22;;;;;;;14.35;100.00;96472.78;5008373;28;20221;-73
2023/09/08 04:13:58;;;;;;;5.00;2.58;;;;;;;14.14;100.00;96483.41;5008618;28;20648;-73
2023/09/08 04:16:26;;;;;;;4.65;1.90;;;;;;;14.29;100.00;96487.59;5008341;28;20212;-73
2023/09/08 04:18:53;;;;;;;3.70;2.20;;;;;;;14.18;100.00;96487.34;5008804;28;20672;-73
2023/09/08 04:21:19;;;;;;;4.57;2.78;;;;;;;14.12;100.00;96485.44;5008753;28;20212;-73
2023/09/08 04:23:46;;;;;;;5.28;2.65;;;;;;;14.10;100.00;96487.47;5008184;28;20222;-73
2023/09/08 04:26:13;;;;;;;5.10;2.75;;;;;;;14.37;100.00;96483.97;5008500;28;20268;-74
2023/09/08 04:28:39;;;;;;;6.07;3.05;;;;;;;14.35;100.00;96480.72;5008581;28;20212;-74
2023/09/08 04:31:06;;;;;;;5.93;2.95;;;;;;;14.47;100.00;96489.75;5008644;28;20226;-74
2023/09/08 04:33:34;;;;;;;7.45;3.95;;;;;;;14.68;100.00;96493.16;5008391;28;20673;-74
2023/09/08 04:36:00;;;;;;;6.50;2.90;;;;;;;14.54;100.00;96501.25;5008716;28;20216;-74
2023/09/08 04:38:27;;;;;;;4.38;2.75;;;;;;;14.42;100.00;96500.13;5008374;28;20229;-74
2023/09/08 04:40:53;;;;;;;4.50;3.05;;;;;;;14.47;100.00;96500.38;5008522;28;20219;-74
2023/09/08 04:43:20;;;;;;;6.97;2.60;;;;;;;14.48;100.00;96496.72;5008081;28;20222;-74
2023/09/08 04:45:46;;;;;;;7.32;2.72;;;;;;;14.41;100.00;96498.47;5008309;28;20317;-74
2023/09/08 04:48:13;;;;;;;4.22;2.25;;;;;;;14.46;100.00;96507.53;5008565;28;20280;-74
2023/09/08 04:50:41;;;;;;;4.97;2.50;;;;;;;14.67;100.00;96502.94;5007871;28;20226;-74
2023/09/08 04:53:07;;;;;;;4.10;2.47;;;;;;;14.33;100.00;96511.91;5007962;28;20206;-74
2023/09/08 04:55:34;;;;;;;3.40;2.15;;;;;;;14.48;100.00;96509.97;5009422;28;20198;-74
2023/09/08 04:58:00;;;;;;;3.65;2.30;;;;;;;14.36;100.00;96517.63;5012341;28;20229;-74
2023/09/08 05:00:27;;;;;;;4.03;2.13;;;;;;;14.36;100.00;96514.19;5012077;28;20222;-74
2023/09/08 05:02:53;;;;;;;4.93;2.42;;;;;;;14.31;100.00;96512.09;5011951;28;20249;-74
2023/09/08 05:05:20;;;;;;;5.00;2.85;;;;;;;14.34;100.00;96508.25;5012154;28;20206;-74
2023/09/08 05:07:48;;;;;;;3.85;2.20;;;;;;;14.56;100.00;96512.47;5011993;28;20202;-74
2023/09/08 05:10:15;;;;;;;4.47;2.65;;;;;;;14.47;100.00;96506.47;5011914;28;20226;-74
2023/09/08 05:12:41;;;;;;;7.70;3.28;;;;;;;15.49;100.00;96508.03;5011491;28;20220;-74
2023/09/08 05:15:14;;;;;;;4.43;2.22;;;;;;;15.76;100.00;96512.38;5011764;28;20209;-74
2023/09/08 05:17:41;;;;;;;6.07;2.92;;;;;;;15.75;100.00;96509.94;5011751;28;20202;-74
2023/09/08 05:20:08;;;;;;;5.55;2.47;;;;;;;15.80;100.00;96499.53;5011940;28;20581;-74
2023/09/08 05:22:36;;;;;;;4.95;2.50;;;;;;;15.64;100.00;96503.34;5011249;28;20290;-74
2023/09/08 05:25:04;;;;;;;4.68;2.90;;;;;;;15.76;100.00;96507.06;5011610;28;20230;-74
2023/09/08 05:27:31;;;;;;;6.57;2.90;;;;;;;15.73;100.00;96504.78;5011700;28;20198;-74
2023/09/08 05:29:58;;;;;;;4.85;2.42;;;;;;;15.12;100.00;96512.97;5011400;28;20333;-74
2023/09/08 05:32:24;;;;;;;5.85;2.53;;;;;;;15.04;100.00;96518.44;5011313;28;20738;-74
2023/09/08 05:34:51;;;;;;;5.25;2.92;;;;;;;15.35;100.00;96521.44;5011361;28;20199;-74
2023/09/08 05:37:18;;;;;;;7.45;3.47;;;;;;;15.36;100.00;96517.78;5011520;28;20202;-74
2023/09/08 05:39:44;;;;;;;7.72;3.47;;;;;;;15.28;100.00;96517.97;5011438;28;20230;-74
2023/09/08 05:42:12;;;;;;;4.82;2.58;;;;;;;15.46;100.00;96523.53;5011168;28;20575;-74
2023/09/08 05:44:39;;;;;;;6.65;2.85;;;;;;;15.30;100.00;96523.91;5010881;28;20237;-74
2023/09/08 05:47:06;;;;;;;5.53;2.92;;;;;;;15.44;100.00;96517.59;5011416;28;20217;-74
2023/09/08 05:49:32;;;;;;;6.10;2.80;;;;;;;15.61;100.00;96517.03;5011187;28;20229;-73
2023/09/08 05:51:59;;;;;;;5.20;3.13;;;;;;;15.69;100.00;96521.34;5010441;28;20202;-73
2023/09/08 05:54:25;;;;;;;6.53;3.00;;;;;;;15.76;100.00;96523.00;5011394;28;20198;-73
2023/09/08 05:56:52;;;;;;;5.13;2.80;;;;;;;15.70;100.00;96523.81;5011056;28;20209;-73
2023/09/08 05:59:20;;;;;;;4.43;2.33;;;;;;;15.93;100.00;96524.25;5010994;28;20349;-73
2023/09/08 06:01:46;;;;;;;5.00;2.80;;;;;;;15.81;100.00;96531.19;5010693;28;20571;-73
2023/09/08 06:04:13;;;;;;;9.70;3.17;;;;;;;15.90;100.00;96536.09;5010832;28;20224;-73
2023/09/08 06:06:39;;;;;;;7.68;3.65;;;;;;;15.97;100.00;96526.31;5009706;28;20202;-73
2023/09/08 06:09:08;;;;;;;8.02;3.30;;;;;;;16.10;100.00;96531.66;5011061;28;20209;-73
2023/09/08 06:11:34;;;;;;;5.45;3.05;;;;;;;16.20;100.00;96529.38;5010485;28;20695;-73
2023/09/08 06:14:01;;;;;;;5.43;2.60;;;;;;;16.30;100.00;96535.16;5010404;28;20205;-73
2023/09/08 06:16:29;;;;;;;4.35;2.70;;;;;;;16.63;100.00;96533.28;5010855;28;20202;-73
2023/09/08 06:18:55;;;;;;;6.05;2.97;;;;;;;16.58;100.00;96527.75;5010495;28;20206;-73
2023/09/08 06:21:22;;;;;;;7.72;3.10;;;;;;;16.70;100.00;96532.25;5010439;28;20216;-73
2023/09/08 06:23:49;;;;;;;5.60;3.03;;;;;;;16.70;100.00;96537.56;5010199;28;20241;-73
2023/09/08 06:26:15;;;;;;;8.60;2.75;;;;;;;16.78;100.00;96533.88;5010604;28;20199;-73
2023/09/08 06:28:43;;;;;;;5.63;3.30;;;;;;;16.80;100.00;96534.47;5010486;28;20220;-74
2023/09/08 06:31:09;;;;;;;7.38;3.38;;;;;;;16.91;100.00;96531.19;5010287;28;20231;-73
2023/09/08 06:33:37;;;;;;;12.88;3.28;;;;;;;17.02;100.00;96525.19;5010272;28;20209;-73
2023/09/08 06:36:04;;;;;;;6.50;3.10;;;;;;;17.00;100.00;96533.41;5010490;28;20206;-73
2023/09/08 06:38:31;;;;;;;7.10;3.30;;;;;;;17.09;100.00;96532.16;5010631;28;20237;-73
2023/09/08 06:40:57;;;;;;;7.28;3.45;;;;;;;17.25;100.00;96535.19;5009821;28;20222;-74
2023/09/08 06:43:25;;;;;;;7.72;3.70;;;;;;;17.39;100.00;96530.66;5010064;28;20202;-73
2023/09/08 06:45:52;;;;;;;8.02;3.95;;;;;;;17.41;100.00;96526.75;5011482;28;20206;-73
2023/09/08 06:48:18;;;;;;;11.43;4.60;;;;;;;17.35;100.00;96535.56;5010887;28;20202;-73
2023/09/08 06:50:46;;;;;;;10.63;4.47;;;;;;;17.63;100.00;96528.06;5009601;28;20218;-73
2023/09/08 06:53:12;;;;;;;9.77;4.57;;;;;;;17.34;100.00;96533.94;5009373;28;20214;-73
2023/09/08 06:55:39;;;;;;;11.23;4.65;;;;;;;17.52;100.00;96541.25;5010159;28;20207;-73
2023/09/08 06:58:06;;;;;;;7.32;4.28;;;;;;;17.63;100.00;96544.06;5013185;28;20202;-73
2023/09/08 07:00:33;;;;;;;8.20;4.40;;;;;;;17.72;100.00;96532.13;5011415;28;20226;-73
2023/09/08 07:02:59;;;;;;;6.15;3.60;;;;;;;17.97;100.00;96531.16;5010220;28;20579;-74
2023/09/08 07:05:26;;;;;;;8.02;4.40;;;;;;;18.14;100.00;96534.09;5009932;28;20229;-74
2023/09/08 07:07:54;;;;;;;9.07;4.60;;;;;;;18.52;100.00;96530.31;5010725;28;20203;-73
2023/09/08 07:10:20;;;;;;;6.57;3.70;;;;;;;18.45;100.00;96533.03;5009965;28;20231;-74
2023/09/08 07:12:47;;;;;;;5.85;3.20;;;;;;;18.85;100.00;96537.00;5009695;28;20211;-74
2023/09/08 07:15:14;;;;;;;7.07;3.38;;;;;;;19.17;100.00;96538.53;5009918;28;20202;-74
2023/09/08 07:17:41;;;;;;;10.18;4.78;;;;;;;19.12;100.00;96527.72;5008815;28;20211;-74
2023/09/08 07:20:09;;;;;;;8.45;3.35;;;;;;;19.47;100.00;96537.56;5009372;28;20261;-74
2023/09/08 07:22:35;;;;;;;5.32;2.92;;;;;;;19.48;100.00;96541.06;5009142;28;20210;-74
2023/09/08 07:25:04;;;;;;;10.13;4.07;;;;;;;19.76;100.00;96528.75;5009596;28;20225;-74
2023/09/08 07:27:30;;;;;;;8.73;3.90;;;;;;;19.57;100.00;96537.84;5009260;28;20215;-74
2023/09/08 07:29:57;;;;;;;7.57;4.35;;;;;;;19.60;100.00;96548.91;5008071;28;20219;-73
2023/09/08 07:32:24;;;;;;;8.70;4.18;;;;;;;19.67;100.00;96538.94;5009142;28;20225;-73
2023/09/08 07:34:54;;;;;;;5.75;3.10;;;;;;;19.90;100.00;96532.88;5008190;28;20258;-73
2023/09/08 07:37:21;;;;;;;8.23;4.28;;;;;;;20.00;100.00;96533.19;5009406;28;20650;-74
2023/09/08 07:39:48;;;;;;;7.63;3.72;;;;;;;20.13;100.00;96541.81;5009085;28;20891;-74
2023/09/08 07:42:15;;;;;;;9.18;4.22;;;;;;;20.41;100.00;96537.47;5008933;28;20217;-73
2023/09/08 07:44:42;;;;;;;5.70;3.67;;;;;;;20.60;100.00;96540.88;5008849;28;20229;-73
2023/09/08 07:47:09;;;;;;;7.20;3.13;;;;;;;20.85;100.00;96540.47;5008869;28;20220;-74
2023/09/08 07:49:35;;;;;;;7.43;3.92;;;;;;;20.83;100.00;96542.53;5008621;28;20242;-73
2023/09/08 07:52:04;;;;;;;6.65;3.33;;;;;;;20.92;100.00;96546.50;5008434;28;20205;-73
2023/09/08 07:54:30;;;;;;;7.97;4.30;;;;;;;21.02;100.00;96551.28;5008941;28;20790;-74
2023/09/08 07:56:57;;;;;;;7.50;3.70;;;;;;;21.07;100.00;96552.22;5008540;28;20207;-73
2023/09/08 07:59:25;;;;;;;9.70;4.32;;;;;;;21.19;100.00;96558.38;5008685;28;20219;-74
2023/09/08 08:01:51;;;;;;;7.15;3.83;;;;;;;21.01;100.00;96555.00;5009388;28;20232;-75
2023/09/08 08:04:18;;;;;;;8.35;4.03;;;;;;;21.19;100.00;96552.19;5010561;28;20663;-75
2023/09/08 08:06:44;;;;;;;12.68;3.97;;;;;;;21.05;100.00;96551.66;5011194;28;20199;-75
2023/09/08 08:09:11;;;;;;;7.82;3.92;;;;;;;21.08;100.00;96545.81;5011435;28;20210;-74
2023/09/08 08:11:37;;;;;;;6.13;3.35;;;;;;;21.10;100.00;96549.06;5013444;28;20210;-74
2023/09/08 08:14:04;;;;;;;7.68;3.63;;;;;;;21.45;100.00;96541.78;5013591;28;20206;-75
2023/09/08 08:16:32;;;;;;;8.75;3.75;;;;;;;21.43;100.00;96547.41;5012945;28;20238;-75
2023/09/08 08:18:59;;;;;;;7.07;3.40;;;;;;;21.51;100.00;96541.69;5012975;28;20301;-74
2023/09/08 08:21:25;;;;;;;5.72;3.67;;;;;;;21.38;100.00;96541.09;5013296;28;20198;-74
2023/09/08 08:23:52;;;;;;;5.70;3.47;;;;;;;21.65;100.00;96536.84;5012989;28;20206;-75
2023/09/08 08:26:19;;;;;;;8.82;3.45;;;;;;;21.70;100.00;96534.28;5013288;28;20230;-75
2023/09/08 08:28:45;;;;;;;8.20;3.95;;;;;;;21.67;100.00;96532.09;5013289;28;20206;-74
2023/09/08 08:31:12;;;;;;;5.25;3.30;;;;;;;21.96;100.00;96539.06;5012919;28;20317;-74
2023/09/08 08:33:40;;;;;;;7.50;3.10;;;;;;;22.26;100.00;96532.44;5013503;28;20206;-75
2023/09/08 08:36:09;;;;;;;8.30;3.25;;;;;;;22.40;100.00;96531.91;5011612;28;20198;-74
2023/09/08 08:38:36;;;;;;;7.50;3.20;;;;;;;22.39;100.00;96540.16;5013210;28;20202;-76
2023/09/08 08:41:05;;;;;;;6.15;2.83;;;;;;;22.39;100.00;96535.63;5007971;28;20230;-75
2023/09/08 08:43:33;;;;;;;7.57;3.53;;;;;;;22.50;100.00;96537.41;5008263;28;20199;-75
2023/09/08 08:46:00;;;;;;;6.95;3.58;;;;;;;22.63;100.00;96542.47;5008257;28;20631;-75
2023/09/08 08:48:30;;;;;;;7.00;3.25;;;;;;;22.82;100.00;96538.47;5008152;28;20580;-75
2023/09/08 08:50:58;;;;;;;5.93;3.17;;;;;;;22.80;100.00;96545.97;5008011;28;20228;-75
2023/09/08 08:53:26;;;;;;;7.13;3.08;;;;;;;22.63;100.00;96542.47;5007695;28;20207;-75
2023/09/08 08:55:56;;;;;;;9.00;4.00;;;;;;;22.97;100.00;96544.09;5008194;28;20198;-75
2023/09/08 08:58:26;;;;;;;8.07;4.00;;;;;;;22.79;100.00;96542.47;5008056;28;20321;-75
2023/09/08 09:00:55;;;;;;;6.80;3.85;;;;;;;23.11;100.00;96550.78;5007041;28;20704;-75
2023/09/08 09:03:22;;;;;;;7.00;4.00;;;;;;;23.14;100.00;96539.53;5007699;28;20599;-74
2023/09/08 09:05:49;;;;;;;6.45;3.45;;;;;;;23.12;100.00;96541.66;5007834;28;20236;-75
2023/09/08 09:08:18;;;;;;;7.28;3.15;;;;;;;23.20;100.00;96546.63;5008383;28;20236;-75
2023/09/08 09:10:44;;;;;;;4.68;2.92;;;;;;;23.10;100.00;96538.41;5007666;28;20791;-75
2023/09/08 09:13:11;;;;;;;5.53;2.83;;;;;;;23.18;100.00;96535.28;5007804;28;20604;-74
2023/09/08 09:15:38;;;;;;;8.38;3.03;;;;;;;23.17;100.00;96536.38;5008130;28;20221;-75
2023/09/08 09:18:06;;;;;;;8.20;3.35;;;;;;;23.37;100.00;96530.19;5007686;28;20684;-74
2023/09/08 09:20:33;;;;;;;8.43;3.88;;;;;;;23.48;100.00;96525.75;5007169;28;20226;-74
2023/09/08 09:23:00;;;;;;;5.57;3.42;;;;;;;23.58;100.00;96529.38;5007312;28;20206;-74
2023/09/08 09:25:29;;;;;;;4.78;2.95;;;;;;;23.82;100.00;96524.59;5007823;28;20222;-75
2023/09/08 09:27:58;;;;;;;7.55;3.30;;;;;;;23.96;100.00;96523.94;5007134;28;20206;-75
2023/09/08 09:30:26;;;;;;;8.25;3.95;;;;;;;24.04;100.00;96527.00;5007442;28;20241;-74
2023/09/08 09:33:02;;;;;;;6.20;3.15;;;;;;;24.45;100.00;96522.84;5007286;28;20667;-74
2023/09/08 09:35:42;;;;;;;5.18;2.80;;;;;;;24.77;96.88;96525.28;5007935;28;20210;-74
2023/09/08 09:38:09;;;;;;;4.80;2.70;;;;;;;24.67;100.00;96527.09;5007626;28;20206;-74
2023/09/08 09:40:38;;;;;;;5.90;2.80;;;;;;;25.15;100.00;96526.91;5007692;28;20253;-75
2023/09/08 09:43:07;;;;;;;3.83;2.33;;;;;;;25.23;99.23;96529.94;5010589;28;20203;-75
2023/09/08 09:45:34;;;;;;;4.32;2.45;;;;;;;25.00;99.25;96533.00;5011157;28;20237;-75
2023/09/08 09:48:01;;;;;;;5.85;3.10;;;;;;;25.31;94.02;96534.84;5011366;28;20202;-75
2023/09/08 09:50:29;;;;;;;15.82;6.63;;;;;;;24.82;94.92;96535.28;5011322;28;20222;-75
2023/09/08 09:52:58;;;;;;;6.32;2.63;;;;;;;25.38;94.46;96532.72;5010690;28;20199;-75
2023/09/08 09:55:25;;;;;;;6.13;2.60;;;;;;;25.52;96.35;96531.16;5010883;28;20440;-75
2023/09/08 09:57:56;;;;;;;8.27;2.65;;;;;;;25.75;93.43;96530.78;5010576;28;20206;-75
2023/09/08 10:00:24;;;;;;;4.57;2.45;;;;;;;25.71;95.09;96532.38;5010771;28;20255;-75
2023/09/08 10:02:51;;;;;;;7.93;2.78;;;;;;;25.62;98.96;96534.72;5010803;28;20207;-75
2023/09/08 10:05:17;;;;;;;4.28;2.25;;;;;;;25.94;93.02;96536.25;5010830;28;20227;-75
2023/09/08 10:07:46;;;;;;;4.63;2.42;;;;;;;26.01;90.24;96527.91;5011407;28;20203;-75
2023/09/08 10:10:13;;;;;;;4.78;2.45;;;;;;;26.10;89.48;96535.22;5010896;28;20225;-75
2023/09/08 10:12:44;;;;;;;6.75;2.13;;;;;;;26.06;88.68;96528.72;5010293;28;20699;-75
2023/09/08 10:15:13;;;;;;;10.23;2.80;;;;;;;26.46;90.59;96528.81;5010906;28;20585;-75
2023/09/08 10:17:42;;;;;;;3.95;2.22;;;;;;;26.58;92.89;96526.69;5010817;28;20225;-75
2023/09/08 10:20:11;;;;;;;3.88;1.98;;;;;;;26.74;90.70;96531.00;5010499;28;20229;-75
2023/09/08 10:22:41;;;;;;;3.58;2.53;;;;;;;26.86;89.15;96523.44;5010487;28;20202;-75
2023/09/08 10:25:09;;;;;;;4.25;2.50;;;;;;;26.38;87.95;96532.06;5010528;28;20796;-75
2023/09/08 10:27:37;;;;;;;3.95;2.55;;;;;;;26.24;89.76;96525.53;5010576;28;20230;-75
2023/09/08 10:30:06;;;;;;;4.75;2.65;;;;;;;25.99;89.14;96517.38;5010307;28;20229;-75
2023/09/08 10:32:36;;;;;;;4.25;2.45;;;;;;;26.36;92.11;96512.59;5010311;28;20201;-75
2023/09/08 10:35:04;;;;;;;4.03;2.17;;;;;;;26.11;85.20;96520.63;5010327;28;20229;-75
2023/09/08 10:37:30;;;;;;;6.20;2.50;;;;;;;26.07;90.98;96516.84;5010418;28;20222;-75
2023/09/08 10:39:57;;;;;;;6.07;2.38;;;;;;;26.45;85.24;96521.78;5010204;28;20221;-75
2023/09/08 10:42:29;;;;;;;4.75;2.38;;;;;;;26.27;85.45;96519.56;5010226;28;20209;-74
2023/09/08 10:45:03;;;;;;;4.75;2.83;;;;;;;26.61;83.60;96518.03;5009829;28;20198;-75
2023/09/08 10:47:35;;;;;;;6.47;3.15;;;;;;;26.71;83.00;96515.34;5010162;28;20206;-74
2023/09/08 10:50:05;;;;;;;4.68;2.47;;;;;;;26.39;88.77;96500.44;5009486;28;20602;-75
2023/09/08 10:52:33;;;;;;;6.75;2.60;;;;;;;26.67;87.19;96503.44;4997107;28;20211;-75
2023/09/08 10:55:00;;;;;;;5.50;2.28;;;;;;;26.94;85.23;96506.69;4997708;28;20261;-75
2023/09/08 10:57:27;;;;;;;4.40;2.58;;;;;;;26.91;81.75;96507.19;4997908;28;20202;-75
2023/09/08 10:59:54;;;;;;;6.85;2.22;;;;;;;27.15;82.76;96507.22;4998108;28;20228;-75
2023/09/08 11:02:48;;;;;;;4.03;2.38;;;;;;;27.93;80.81;96498.31;4996146;28;20206;-76
2023/09/08 11:05:16;;;;;;;4.88;2.28;;;;;;;27.66;78.78;96495.19;4995323;28;20316;-76
2023/09/08 11:07:45;;;;;;;6.82;2.63;;;;;;;27.69;82.31;96510.06;4997883;28;20202;-76
2023/09/08 11:10:13;;;;;;;3.70;2.55;;;;;;;27.91;81.04;96503.97;4996983;28;20222;-76
2023/09/08 11:12:39;;;;;;;3.20;2.17;;;;;;;27.60;79.59;96504.41;4996297;28;20577;-75
2023/09/08 11:15:08;;;;;;;4.57;2.40;;;;;;;27.75;78.96;96501.66;4997290;28;20636;-75
2023/09/08 11:17:39;;;;;;;3.63;2.13;;;;;;;27.71;76.67;96495.97;4997171;28;20198;-75
2023/09/08 11:20:09;;;;;;;4.75;2.15;;;;;;;27.49;78.09;96497.34;4996981;28;20218;-75
2023/09/08 11:22:36;;;;;;;4.97;2.60;;;;;;;27.51;83.62;96499.78;4997379;28;20261;-75
2023/09/08 11:25:04;;;;;;;6.38;2.60;;;;;;;27.82;77.96;96497.53;4996047;28;20210;-75
2023/09/08 11:27:31;;;;;;;4.38;2.28;;;;;;;28.12;77.10;96491.97;4995998;28;20449;-75